Time;durP1;ratioP1;P1;durP2;ratioP2;P2;SDS_P1;SDS_P2;PMS_P1;PMS_P2;Temp;Humidity;BMP_temperature;BMP_pressure;BME280_temperature;BME280_humidity;BME280_pressure;Samples;Min_cycle;Max_cycle;Signal;HPM_P1;HPM_P2
2021/09/16 00:00:25;;;;;;;7.28;1.88;;;;;;;;;;5066577;28;20077;-80
2021/09/16 00:02:51;;;;;;;8.98;2.10;;;;;;;;;;5065042;28;20031;-80
2021/09/16 00:05:17;;;;;;;10.63;1.80;;;;;;;;;;5079585;28;20035;-78
2021/09/16 00:07:44;;;;;;;9.95;2.50;;;;;;;;;;5080859;28;20060;-78
2021/09/16 00:10:12;;;;;;;11.93;1.80;;;;;;;;;;5066689;28;20119;-78
2021/09/16 00:12:37;;;;;;;5.28;1.40;;;;;;;;;;5062090;28;20035;-79
2021/09/16 00:15:05;;;;;;;13.50;2.20;;;;;;;;;;5076861;28;20037;-78
2021/09/16 00:17:31;;;;;;;5.93;1.83;;;;;;;;;;5064862;28;20021;-78
2021/09/16 00:19:56;;;;;;;7.70;1.85;;;;;;;;;;5061623;28;20028;-78
2021/09/16 00:22:22;;;;;;;6.00;1.60;;;;;;;;;;5067817;28;20036;-79
2021/09/16 00:24:47;;;;;;;9.68;1.50;;;;;;;;;;5065549;28;20078;-79
2021/09/16 00:27:13;;;;;;;4.90;1.50;;;;;;;;;;5076314;28;20052;-78
2021/09/16 00:29:39;;;;;;;12.48;1.60;;;;;;;;;;5066610;28;20032;-78
2021/09/16 00:32:04;;;;;;;7.22;2.17;;;;;;;;;;5061163;28;20033;-79
2021/09/16 00:34:30;;;;;;;9.23;1.70;;;;;;;;;;5057490;28;20044;-81
2021/09/16 00:36:55;;;;;;;6.63;1.60;;;;;;;;;;5064941;28;20031;-80
2021/09/16 00:39:21;;;;;;;10.02;1.70;;;;;;;;;;5062488;28;20040;-80
2021/09/16 00:41:46;;;;;;;6.95;1.60;;;;;;;;;;5062989;28;20039;-80
2021/09/16 00:44:12;;;;;;;13.48;1.65;;;;;;;;;;5067630;28;20056;-80
2021/09/16 00:46:37;;;;;;;10.52;2.13;;;;;;;;;;5064931;28;20016;-80
2021/09/16 00:49:04;;;;;;;18.23;2.70;;;;;;;;;;5064109;28;20041;-80
2021/09/16 00:51:30;;;;;;;7.97;1.70;;;;;;;;;;5078361;28;20400;-80
2021/09/16 00:53:58;;;;;;;7.40;2.05;;;;;;;;;;5066358;28;20032;-80
2021/09/16 00:56:25;;;;;;;8.98;3.30;;;;;;;;;;5065172;28;20028;-80
2021/09/16 00:58:52;;;;;;;3.17;1.33;;;;;;;;;;5082685;28;20028;-80
2021/09/16 01:01:18;;;;;;;8.32;1.55;;;;;;;;;;5044661;28;20073;-80
2021/09/16 01:03:44;;;;;;;10.43;1.92;;;;;;;;;;5058126;28;20091;-80
2021/09/16 01:06:11;;;;;;;16.88;2.33;;;;;;;;;;5056955;28;20032;-80
2021/09/16 01:08:38;;;;;;;7.30;1.48;;;;;;;;;;5047429;28;20033;-80
2021/09/16 01:11:03;;;;;;;11.10;2.38;;;;;;;;;;5046361;28;20589;-80
2021/09/16 01:13:29;;;;;;;8.00;1.75;;;;;;;;;;5062730;28;20116;-80
2021/09/16 01:15:58;;;;;;;4.55;1.60;;;;;;;;;;5050504;28;20021;-80
2021/09/16 01:18:24;;;;;;;8.88;2.55;;;;;;;;;;5045602;28;20056;-80
2021/09/16 01:20:49;;;;;;;8.35;2.00;;;;;;;;;;5048731;28;20515;-80
2021/09/16 01:23:15;;;;;;;12.15;3.00;;;;;;;;;;5059125;28;20068;-80
2021/09/16 01:25:41;;;;;;;6.60;1.38;;;;;;;;;;5062161;28;20421;-78
2021/09/16 01:28:06;;;;;;;11.30;2.42;;;;;;;;;;5047029;28;20099;-79
2021/09/16 01:30:32;;;;;;;9.80;1.85;;;;;;;;;;5047548;28;20120;-78
2021/09/16 01:32:58;;;;;;;7.95;2.33;;;;;;;;;;5046560;28;20037;-79
2021/09/16 01:35:25;;;;;;;5.80;1.60;;;;;;;;;;5058251;28;20033;-79
2021/09/16 01:37:50;;;;;;;12.13;2.05;;;;;;;;;;5061639;28;20131;-79
2021/09/16 01:40:16;;;;;;;10.75;2.40;;;;;;;;;;5045361;28;20063;-78
2021/09/16 01:42:43;;;;;;;8.27;1.52;;;;;;;;;;5043827;28;20033;-78
2021/09/16 01:45:20;;;;;;;7.90;1.52;;;;;;;;;;5046104;28;20029;-79
2021/09/16 01:47:47;;;;;;;7.75;1.83;;;;;;;;;;5046792;28;20035;-79
2021/09/16 01:50:15;;;;;;;7.65;2.13;;;;;;;;;;5061296;28;20050;-79
2021/09/16 01:52:41;;;;;;;11.30;1.88;;;;;;;;;;5062619;28;20017;-78
2021/09/16 01:55:07;;;;;;;7.25;1.90;;;;;;;;;;5047028;28;20033;-79
2021/09/16 01:57:33;;;;;;;9.52;2.13;;;;;;;;;;5044277;28;20082;-79
2021/09/16 01:59:59;;;;;;;9.45;2.25;;;;;;;;;;5046413;28;20167;-79
2021/09/16 02:02:25;;;;;;;10.27;2.00;;;;;;;;;;5059306;28;20112;-79
2021/09/16 02:04:50;;;;;;;12.13;2.00;;;;;;;;;;5060320;28;20012;-78
2021/09/16 02:07:16;;;;;;;12.35;2.63;;;;;;;;;;5046013;28;20033;-79
2021/09/16 02:09:41;;;;;;;10.23;1.90;;;;;;;;;;5047544;28;20229;-79
2021/09/16 02:12:07;;;;;;;9.38;2.35;;;;;;;;;;5048962;28;20398;-79
2021/09/16 02:14:33;;;;;;;7.78;2.95;;;;;;;;;;5046614;28;20793;-79
2021/09/16 02:16:58;;;;;;;7.93;1.80;;;;;;;;;;5046190;28;20033;-79
2021/09/16 02:19:24;;;;;;;6.70;2.60;;;;;;;;;;5060908;28;20032;-79
2021/09/16 02:21:50;;;;;;;10.70;1.90;;;;;;;;;;5044893;28;20035;-79
2021/09/16 02:24:15;;;;;;;6.22;2.25;;;;;;;;;;5045687;28;20113;-79
2021/09/16 02:26:41;;;;;;;7.07;2.00;;;;;;;;;;5043833;28;20029;-79
2021/09/16 02:29:06;;;;;;;11.93;1.73;;;;;;;;;;5045893;28;20072;-79
2021/09/16 02:31:32;;;;;;;13.82;2.08;;;;;;;;;;5041008;28;20041;-79
2021/09/16 02:33:57;;;;;;;8.40;2.05;;;;;;;;;;5046617;28;20453;-79
2021/09/16 02:36:23;;;;;;;7.05;1.73;;;;;;;;;;5061413;28;20108;-79
2021/09/16 02:38:48;;;;;;;16.10;1.98;;;;;;;;;;5045210;28;20631;-80
2021/09/16 02:41:14;;;;;;;12.48;2.47;;;;;;;;;;5049638;28;20025;-79
2021/09/16 02:43:40;;;;;;;10.10;1.85;;;;;;;;;;5062226;28;20500;-79
2021/09/16 02:46:05;;;;;;;6.05;2.30;;;;;;;;;;5060848;28;20029;-79
2021/09/16 02:48:31;;;;;;;9.95;1.77;;;;;;;;;;5046307;28;20716;-80
2021/09/16 02:50:56;;;;;;;9.82;2.25;;;;;;;;;;5043384;28;20037;-79
2021/09/16 02:53:22;;;;;;;14.00;2.13;;;;;;;;;;5054748;28;20036;-79
2021/09/16 02:55:47;;;;;;;12.23;2.92;;;;;;;;;;5061989;28;20443;-79
2021/09/16 02:58:13;;;;;;;10.27;1.83;;;;;;;;;;5046243;28;20040;-79
2021/09/16 03:00:38;;;;;;;11.73;1.83;;;;;;;;;;5065012;28;20048;-79
2021/09/16 03:03:05;;;;;;;7.28;2.35;;;;;;;;;;5048225;28;20025;-79
2021/09/16 03:05:31;;;;;;;10.18;1.80;;;;;;;;;;5046661;28;20517;-80
2021/09/16 03:07:56;;;;;;;5.43;1.70;;;;;;;;;;5060385;28;20041;-79
2021/09/16 03:10:22;;;;;;;9.18;1.70;;;;;;;;;;5046525;28;20589;-79
2021/09/16 03:12:47;;;;;;;10.95;1.80;;;;;;;;;;5047935;28;20032;-80
2021/09/16 03:15:13;;;;;;;14.80;2.00;;;;;;;;;;5065509;28;20037;-79
2021/09/16 03:17:38;;;;;;;8.50;1.85;;;;;;;;;;5048590;28;20090;-79
2021/09/16 03:20:05;;;;;;;11.63;2.28;;;;;;;;;;5046354;28;20061;-79
2021/09/16 03:22:31;;;;;;;10.38;2.58;;;;;;;;;;5049658;28;20044;-79
2021/09/16 03:24:56;;;;;;;9.32;2.08;;;;;;;;;;5068987;28;20151;-79
2021/09/16 03:27:22;;;;;;;13.10;1.67;;;;;;;;;;5048610;28;20056;-79
2021/09/16 03:29:48;;;;;;;9.55;1.75;;;;;;;;;;5049035;28;20045;-79
2021/09/16 03:32:14;;;;;;;8.73;1.60;;;;;;;;;;5064009;28;20390;-79
2021/09/16 03:34:39;;;;;;;10.30;2.33;;;;;;;;;;5064801;28;20040;-80
2021/09/16 03:37:04;;;;;;;18.92;3.17;;;;;;;;;;5048287;28;20036;-80
2021/09/16 03:39:30;;;;;;;10.85;2.70;;;;;;;;;;5052523;28;20044;-79
2021/09/16 03:41:56;;;;;;;8.30;1.63;;;;;;;;;;5047728;28;20086;-79
2021/09/16 03:44:21;;;;;;;10.27;1.73;;;;;;;;;;5047567;28;20091;-79
2021/09/16 03:46:47;;;;;;;7.95;1.65;;;;;;;;;;5047530;28;20029;-79
2021/09/16 03:49:12;;;;;;;13.88;2.58;;;;;;;;;;5047674;28;20515;-80
2021/09/16 03:51:37;;;;;;;15.30;1.95;;;;;;;;;;5046454;28;20044;-79
2021/09/16 03:54:03;;;;;;;8.50;1.83;;;;;;;;;;5061949;28;20037;-79
2021/09/16 03:56:28;;;;;;;9.02;1.65;;;;;;;;;;5047156;28;20029;-79
2021/09/16 03:58:55;;;;;;;7.22;1.83;;;;;;;;;;5066421;28;20033;-79
2021/09/16 04:01:20;;;;;;;10.43;1.40;;;;;;;;;;5044182;28;20029;-80
2021/09/16 04:03:46;;;;;;;8.75;1.75;;;;;;;;;;5048321;28;20109;-79
2021/09/16 04:06:11;;;;;;;9.75;1.88;;;;;;;;;;5063809;28;20021;-79
2021/09/16 04:08:37;;;;;;;17.58;2.10;;;;;;;;;;5029756;28;20641;-79
2021/09/16 04:11:02;;;;;;;8.32;1.60;;;;;;;;;;5048267;28;20497;-80
2021/09/16 04:13:28;;;;;;;6.32;1.70;;;;;;;;;;5048168;28;20021;-79
2021/09/16 04:15:53;;;;;;;7.63;1.60;;;;;;;;;;5061386;28;20029;-79
2021/09/16 04:18:19;;;;;;;14.20;2.20;;;;;;;;;;5047755;28;20029;-79
2021/09/16 04:20:44;;;;;;;11.68;2.00;;;;;;;;;;5048983;28;20095;-79
2021/09/16 04:23:09;;;;;;;10.05;3.53;;;;;;;;;;5065858;28;20561;-80
2021/09/16 04:25:35;;;;;;;10.73;1.75;;;;;;;;;;5047449;28;20107;-79
2021/09/16 04:28:00;;;;;;;5.15;1.42;;;;;;;;;;5047227;28;20596;-80
2021/09/16 04:30:26;;;;;;;7.10;1.83;;;;;;;;;;5059794;28;20041;-79
2021/09/16 04:32:51;;;;;;;12.40;2.28;;;;;;;;;;5061769;28;20529;-79
2021/09/16 04:35:17;;;;;;;6.70;1.80;;;;;;;;;;5062758;28;20033;-79
2021/09/16 04:37:42;;;;;;;13.63;1.98;;;;;;;;;;5047086;28;20104;-79
2021/09/16 04:40:08;;;;;;;14.50;2.28;;;;;;;;;;5048376;28;20090;-80
2021/09/16 04:42:34;;;;;;;12.02;1.95;;;;;;;;;;5049458;28;20047;-79
2021/09/16 04:44:59;;;;;;;10.05;2.10;;;;;;;;;;5062329;28;20047;-80
2021/09/16 04:47:25;;;;;;;10.60;2.72;;;;;;;;;;5060901;28;20033;-80
2021/09/16 04:49:50;;;;;;;9.13;2.13;;;;;;;;;;5047446;28;20053;-79
2021/09/16 04:52:16;;;;;;;6.45;1.90;;;;;;;;;;5056641;28;20064;-79
2021/09/16 04:54:41;;;;;;;12.32;2.25;;;;;;;;;;5044319;28;20079;-79
2021/09/16 04:57:07;;;;;;;10.68;2.72;;;;;;;;;;5047405;28;20048;-80
2021/09/16 04:59:33;;;;;;;15.95;2.72;;;;;;;;;;5046192;28;20102;-79
2021/09/16 05:01:58;;;;;;;10.35;3.40;;;;;;;;;;5047891;28;20423;-79
2021/09/16 05:04:24;;;;;;;11.98;2.50;;;;;;;;;;5045104;28;20033;-79
2021/09/16 05:06:50;;;;;;;12.20;2.60;;;;;;;;;;5046681;28;20078;-79
2021/09/16 05:09:15;;;;;;;7.75;2.40;;;;;;;;;;5046464;28;20124;-79
2021/09/16 05:11:42;;;;;;;9.88;2.65;;;;;;;;;;5045340;28;20700;-79
2021/09/16 05:14:08;;;;;;;10.07;2.63;;;;;;;;;;5045887;28;20082;-79
2021/09/16 05:16:35;;;;;;;10.00;2.20;;;;;;;;;;5047103;28;20025;-78
2021/09/16 05:19:01;;;;;;;10.48;2.63;;;;;;;;;;5062275;28;20037;-79
2021/09/16 05:21:27;;;;;;;15.10;2.88;;;;;;;;;;5061735;28;20033;-79
2021/09/16 05:23:52;;;;;;;11.27;3.13;;;;;;;;;;5062004;28;20070;-79
2021/09/16 05:26:18;;;;;;;13.13;3.20;;;;;;;;;;5046580;28;20048;-79
2021/09/16 05:28:44;;;;;;;11.93;3.25;;;;;;;;;;5061077;28;20025;-79
2021/09/16 05:31:10;;;;;;;7.97;2.47;;;;;;;;;;5044971;28;20029;-79
2021/09/16 05:33:36;;;;;;;10.52;2.85;;;;;;;;;;5059144;28;20028;-79
2021/09/16 05:36:02;;;;;;;14.30;3.03;;;;;;;;;;5046001;28;20017;-79
2021/09/16 05:38:28;;;;;;;16.05;2.95;;;;;;;;;;5042800;28;20029;-79
2021/09/16 05:40:54;;;;;;;9.60;3.17;;;;;;;;;;5044231;28;20032;-79
2021/09/16 05:43:20;;;;;;;16.23;3.30;;;;;;;;;;5044830;28;20037;-79
2021/09/16 05:45:46;;;;;;;8.35;2.88;;;;;;;;;;5045256;28;20025;-80
2021/09/16 05:48:12;;;;;;;11.35;2.80;;;;;;;;;;5057840;28;20036;-79
2021/09/16 05:50:38;;;;;;;10.98;2.60;;;;;;;;;;5047134;28;20013;-79
2021/09/16 05:53:04;;;;;;;9.05;2.58;;;;;;;;;;5058978;28;20040;-79
2021/09/16 05:55:30;;;;;;;11.48;3.00;;;;;;;;;;5042851;28;20156;-79
2021/09/16 05:57:56;;;;;;;10.65;2.47;;;;;;;;;;5062229;28;20048;-78
2021/09/16 06:00:23;;;;;;;11.00;2.75;;;;;;;;;;5046197;28;20031;-79
2021/09/16 06:02:49;;;;;;;13.30;2.55;;;;;;;;;;5043078;28;20116;-79
2021/09/16 06:05:15;;;;;;;11.95;2.70;;;;;;;;;;5058724;28;20033;-79
2021/09/16 06:07:41;;;;;;;9.05;3.20;;;;;;;;;;5060548;28;20036;-79
2021/09/16 06:10:07;;;;;;;10.00;2.50;;;;;;;;;;5044300;28;20028;-79
2021/09/16 06:12:33;;;;;;;11.57;2.53;;;;;;;;;;5055842;28;20049;-79
2021/09/16 06:14:59;;;;;;;8.82;2.50;;;;;;;;;;5044976;28;20059;-79
2021/09/16 06:17:25;;;;;;;11.48;2.42;;;;;;;;;;5045602;28;20032;-79
2021/09/16 06:19:50;;;;;;;10.43;2.22;;;;;;;;;;5044373;28;20029;-80
2021/09/16 06:22:17;;;;;;;10.90;3.60;;;;;;;;;;5039895;28;20033;-79
2021/09/16 06:24:42;;;;;;;15.38;3.22;;;;;;;;;;5043945;28;20048;-79
2021/09/16 06:27:08;;;;;;;14.32;2.22;;;;;;;;;;5049928;28;20086;-79
2021/09/16 06:29:34;;;;;;;13.07;2.65;;;;;;;;;;5045532;28;20036;-80
2021/09/16 06:31:59;;;;;;;17.90;3.03;;;;;;;;;;5049487;28;20063;-79
2021/09/16 06:34:25;;;;;;;11.77;2.15;;;;;;;;;;5049111;28;20460;-79
2021/09/16 06:36:51;;;;;;;14.57;2.60;;;;;;;;;;5044945;28;20045;-79
2021/09/16 06:39:17;;;;;;;9.98;2.10;;;;;;;;;;5063505;28;20060;-79
2021/09/16 06:41:43;;;;;;;8.63;2.13;;;;;;;;;;5065662;28;20033;-79
2021/09/16 06:44:09;;;;;;;10.70;2.03;;;;;;;;;;5051737;28;20036;-79
2021/09/16 06:46:34;;;;;;;6.43;1.98;;;;;;;;;;5050004;28;20044;-79
2021/09/16 06:49:00;;;;;;;8.85;2.17;;;;;;;;;;5063300;28;20021;-79
2021/09/16 06:51:26;;;;;;;12.20;1.95;;;;;;;;;;5060303;28;20025;-79
2021/09/16 06:53:53;;;;;;;11.50;2.35;;;;;;;;;;5048722;28;20033;-80
2021/09/16 06:56:18;;;;;;;12.20;1.55;;;;;;;;;;5060700;28;20060;-79
2021/09/16 06:58:44;;;;;;;7.22;1.98;;;;;;;;;;5048123;28;20623;-79
2021/09/16 07:01:09;;;;;;;18.73;1.73;;;;;;;;;;5063859;28;20140;-80
2021/09/16 07:03:35;;;;;;;9.38;1.30;;;;;;;;;;5050336;28;20100;-79
2021/09/16 07:06:01;;;;;;;8.55;1.60;;;;;;;;;;5046551;28;20053;-79
2021/09/16 07:08:26;;;;;;;7.65;1.52;;;;;;;;;;5062680;28;20032;-79
2021/09/16 07:10:52;;;;;;;7.35;2.42;;;;;;;;;;5046525;28;20474;-79
2021/09/16 07:13:18;;;;;;;14.55;2.03;;;;;;;;;;5047091;28;20031;-79
2021/09/16 07:15:43;;;;;;;10.27;1.83;;;;;;;;;;5063334;28;20532;-79
2021/09/16 07:18:09;;;;;;;8.55;1.67;;;;;;;;;;5046411;28;20043;-79
2021/09/16 07:20:35;;;;;;;9.50;2.33;;;;;;;;;;5049486;28;20038;-79
2021/09/16 07:23:00;;;;;;;6.55;2.08;;;;;;;;;;5047657;28;20086;-80
2021/09/16 07:25:26;;;;;;;38.90;3.30;;;;;;;;;;5044409;28;20068;-79
2021/09/16 07:27:51;;;;;;;21.15;2.70;;;;;;;;;;5047585;28;20109;-79
2021/09/16 07:30:17;;;;;;;22.13;4.47;;;;;;;;;;5064820;28;20045;-79
2021/09/16 07:32:43;;;;;;;9.10;1.88;;;;;;;;;;5049307;28;20078;-79
2021/09/16 07:35:09;;;;;;;20.05;2.63;;;;;;;;;;5045150;28;20515;-79
2021/09/16 07:37:35;;;;;;;18.75;2.40;;;;;;;;;;5048245;28;20120;-79
2021/09/16 07:40:01;;;;;;;7.63;1.60;;;;;;;;;;5053682;28;20120;-80
2021/09/16 07:42:28;;;;;;;10.07;1.70;;;;;;;;;;5049962;28;20029;-79
2021/09/16 07:44:53;;;;;;;7.78;1.80;;;;;;;;;;5049724;28;20495;-80
2021/09/16 07:47:19;;;;;;;8.23;1.70;;;;;;;;;;5044087;28;20033;-79
2021/09/16 07:49:45;;;;;;;6.43;1.58;;;;;;;;;;5048288;28;20037;-79
2021/09/16 07:52:11;;;;;;;10.32;1.52;;;;;;;;;;5061782;28;20744;-79
2021/09/16 07:54:37;;;;;;;15.57;1.70;;;;;;;;;;5061838;28;20041;-79
2021/09/16 07:57:04;;;;;;;13.68;1.77;;;;;;;;;;5064462;28;20080;-79
2021/09/16 07:59:29;;;;;;;8.88;1.50;;;;;;;;;;5064211;28;20040;-79
2021/09/16 08:01:56;;;;;;;8.27;1.60;;;;;;;;;;5058763;28;20025;-78
2021/09/16 08:04:22;;;;;;;5.68;1.42;;;;;;;;;;5047925;28;20020;-79
2021/09/16 08:06:47;;;;;;;5.40;1.02;;;;;;;;;;5045936;28;20025;-79
2021/09/16 08:09:13;;;;;;;7.00;1.13;;;;;;;;;;5048247;28;20041;-79
2021/09/16 08:11:39;;;;;;;8.80;1.45;;;;;;;;;;5030300;28;20033;-79
2021/09/16 08:14:06;;;;;;;4.72;1.20;;;;;;;;;;5063008;28;20406;-79
2021/09/16 08:16:31;;;;;;;8.90;1.33;;;;;;;;;;5069083;28;20032;-80
2021/09/16 08:18:57;;;;;;;5.70;1.15;;;;;;;;;;5064124;28;20037;-80
2021/09/16 08:21:23;;;;;;;5.88;1.00;;;;;;;;;;5043472;28;20580;-79
2021/09/16 08:23:49;;;;;;;7.28;1.20;;;;;;;;;;5045387;28;20060;-79
2021/09/16 08:26:16;;;;;;;8.73;1.60;;;;;;;;;;5047591;28;20111;-79
2021/09/16 08:28:41;;;;;;;11.30;1.40;;;;;;;;;;5048702;28;20040;-79
2021/09/16 08:31:08;;;;;;;7.40;1.27;;;;;;;;;;5043230;28;20025;-79
2021/09/16 08:33:34;;;;;;;8.85;1.13;;;;;;;;;;5048679;28;20032;-80
2021/09/16 08:36:00;;;;;;;6.07;1.20;;;;;;;;;;5062348;28;20037;-79
2021/09/16 08:38:26;;;;;;;14.15;1.92;;;;;;;;;;5047927;28;20033;-80
2021/09/16 08:40:52;;;;;;;13.55;1.73;;;;;;;;;;5048537;28;20120;-80
2021/09/16 08:43:20;;;;;;;5.97;1.42;;;;;;;;;;5047314;28;20056;-79
2021/09/16 08:45:48;;;;;;;8.45;1.70;;;;;;;;;;5039698;28;20013;-80
2021/09/16 08:48:14;;;;;;;13.30;1.70;;;;;;;;;;5040389;28;20021;-80
2021/09/16 08:50:39;;;;;;;9.00;1.75;;;;;;;;;;5065555;28;20391;-79
2021/09/16 08:53:06;;;;;;;12.90;1.60;;;;;;;;;;5047961;28;20106;-80
2021/09/16 08:55:33;;;;;;;12.32;1.50;;;;;;;;;;5063114;28;20035;-79
2021/09/16 08:58:02;;;;;;;10.45;1.75;;;;;;;;;;5046310;28;20033;-79
2021/09/16 09:00:29;;;;;;;8.43;1.00;;;;;;;;;;5047625;28;20098;-80
2021/09/16 09:02:57;;;;;;;7.05;1.10;;;;;;;;;;5062980;28;20032;-80
2021/09/16 09:05:23;;;;;;;8.82;1.40;;;;;;;;;;5048423;28;20024;-79
2021/09/16 09:07:52;;;;;;;4.22;1.42;;;;;;;;;;5030621;28;20497;-80
2021/09/16 09:10:36;;;;;;;5.75;1.15;;;;;;;;;;5062447;28;20464;-78
2021/09/16 09:13:04;;;;;;;3.28;0.90;;;;;;;;;;5044334;28;20067;-80
2021/09/16 09:15:29;;;;;;;3.78;1.10;;;;;;;;;;5042872;28;20032;-80
2021/09/16 09:18:11;;;;;;;6.75;0.80;;;;;;;;;;5046405;28;20054;-78
2021/09/16 09:20:58;;;;;;;3.13;0.87;;;;;;;;;;5044214;28;20120;-79
2021/09/16 09:23:34;;;;;;;7.20;0.80;;;;;;;;;;5060860;28;20063;-79
2021/09/16 09:26:20;;;;;;;6.10;0.82;;;;;;;;;;5046394;28;20047;-79
2021/09/16 09:28:48;;;;;;;10.77;1.10;;;;;;;;;;5044571;28;20119;-80
2021/09/16 09:31:22;;;;;;;5.85;1.30;;;;;;;;;;5062047;28;20036;-80
2021/09/16 09:33:55;;;;;;;7.72;0.90;;;;;;;;;;5057627;28;20499;-77
2021/09/16 09:36:22;;;;;;;5.75;1.20;;;;;;;;;;5065177;28;20029;-80
2021/09/16 09:38:49;;;;;;;6.20;1.20;;;;;;;;;;5063545;28;20035;-80
2021/09/16 09:41:36;;;;;;;8.18;1.10;;;;;;;;;;5046935;28;20028;-79
2021/09/16 09:44:13;;;;;;;5.80;1.00;;;;;;;;;;5060227;28;20041;-80
2021/09/16 09:46:48;;;;;;;6.53;0.90;;;;;;;;;;5046996;28;20020;-80
2021/09/16 09:49:20;;;;;;;6.65;1.10;;;;;;;;;;5043473;28;20028;-80
2021/09/16 09:51:52;;;;;;;6.32;0.80;;;;;;;;;;5045012;28;20144;-80
2021/09/16 09:54:27;;;;;;;5.28;0.70;;;;;;;;;;5062730;28;20039;-80
2021/09/16 09:57:12;;;;;;;2.97;0.70;;;;;;;;;;5045770;28;20028;-80
2021/09/16 09:59:51;;;;;;;6.43;0.98;;;;;;;;;;5041929;28;20021;-80
2021/09/16 10:02:17;;;;;;;3.58;0.80;;;;;;;;;;5055057;28;20028;-80
2021/09/16 10:04:44;;;;;;;9.55;1.02;;;;;;;;;;5058418;28;20043;-80
2021/09/16 10:07:26;;;;;;;6.82;1.10;;;;;;;;;;5041894;28;20020;-80
2021/09/16 10:09:56;;;;;;;2.78;0.75;;;;;;;;;;5044713;28;20646;-81
2021/09/16 10:12:22;;;;;;;7.10;1.02;;;;;;;;;;5043417;28;20033;-81
2021/09/16 10:14:48;;;;;;;10.90;1.30;;;;;;;;;;5042501;28;20029;-80
2021/09/16 10:17:13;;;;;;;8.20;1.13;;;;;;;;;;5043976;28;20032;-80
2021/09/16 10:19:42;;;;;;;4.88;0.77;;;;;;;;;;5041656;28;20486;-79
2021/09/16 10:22:12;;;;;;;10.75;0.98;;;;;;;;;;5062304;28;20029;-80
2021/09/16 10:24:38;;;;;;;5.72;0.82;;;;;;;;;;5045317;28;20583;-80
2021/09/16 10:27:25;;;;;;;21.75;1.35;;;;;;;;;;5063873;28;20421;-80
2021/09/16 10:29:51;;;;;;;9.60;0.85;;;;;;;;;;5046149;28;20028;-80
2021/09/16 10:32:37;;;;;;;5.22;1.30;;;;;;;;;;5044765;28;20098;-80
2021/09/16 10:35:15;;;;;;;7.45;1.05;;;;;;;;;;5058568;28;20047;-80
2021/09/16 10:37:41;;;;;;;4.03;0.88;;;;;;;;;;5059373;28;20036;-80
2021/09/16 10:40:28;;;;;;;4.68;0.73;;;;;;;;;;5058821;28;20101;-78
2021/09/16 10:43:01;;;;;;;13.20;0.80;;;;;;;;;;5045832;28;20035;-79
2021/09/16 10:45:31;;;;;;;;;;;;;;;;;;5046183;28;20038;-78
2021/09/16 10:48:17;;;;;;;2.55;0.60;;;;;;;;;;5044077;28;19922;-79
2021/09/16 10:50:50;;;;;;;6.15;0.90;;;;;;;;;;5045747;28;20115;-79
2021/09/16 10:53:37;;;;;;;4.95;1.00;;;;;;;;;;5045088;28;20039;-79
2021/09/16 10:56:07;;;;;;;7.13;1.08;;;;;;;;;;5041783;28;20025;-79
2021/09/16 10:58:33;;;;;;;9.15;0.80;;;;;;;;;;5048244;28;20051;-79
2021/09/16 11:00:58;;;;;;;6.40;1.02;;;;;;;;;;5043293;28;20029;-79
2021/09/16 11:03:24;;;;;;;4.82;0.80;;;;;;;;;;5046041;28;20033;-79
2021/09/16 11:05:55;;;;;;;5.93;0.80;;;;;;;;;;5046818;28;20021;-79
2021/09/16 11:08:22;;;;;;;5.60;1.02;;;;;;;;;;5061815;28;20474;-79
2021/09/16 11:10:50;;;;;;;3.13;0.63;;;;;;;;;;5040996;28;20508;-79
2021/09/16 11:13:36;;;;;;;8.70;2.38;;;;;;;;;;5047064;28;20025;-79
2021/09/16 11:16:02;;;;;;;4.80;0.70;;;;;;;;;;5053595;28;20119;-78
2021/09/16 11:18:28;;;;;;;5.75;0.73;;;;;;;;;;5065757;28;20108;-79
2021/09/16 11:20:57;;;;;;;6.90;0.90;;;;;;;;;;5065364;28;20049;-79
2021/09/16 11:23:42;;;;;;;2.50;0.68;;;;;;;;;;5064707;28;20401;-79
2021/09/16 11:26:14;;;;;;;5.05;1.35;;;;;;;;;;5045650;28;20051;-81
2021/09/16 11:28:40;;;;;;;3.97;1.00;;;;;;;;;;5048576;28;20029;-79
2021/09/16 11:31:06;;;;;;;2.90;0.60;;;;;;;;;;5049702;28;20029;-79
2021/09/16 11:33:31;;;;;;;2.95;0.80;;;;;;;;;;5046121;28;20383;-79
2021/09/16 11:36:07;;;;;;;3.38;0.70;;;;;;;;;;5049553;28;20523;-79
2021/09/16 11:38:33;;;;;;;8.07;1.00;;;;;;;;;;5046240;28;20031;-79
2021/09/16 11:41:03;;;;;;;3.13;0.45;;;;;;;;;;5046796;28;20028;-79
2021/09/16 11:43:29;;;;;;;7.28;0.90;;;;;;;;;;5046579;28;20021;-79
2021/09/16 11:45:54;;;;;;;3.33;0.88;;;;;;;;;;5048610;28;20021;-78
2021/09/16 11:48:22;;;;;;;4.82;0.95;;;;;;;;;;5047556;28;20039;-77
2021/09/16 11:50:57;;;;;;;5.45;0.95;;;;;;;;;;5052757;28;20079;-81
2021/09/16 11:53:33;;;;;;;8.27;1.13;;;;;;;;;;5047277;28;20556;-78
2021/09/16 11:56:05;;;;;;;6.15;1.02;;;;;;;;;;5067790;28;20031;-79
2021/09/16 11:58:33;;;;;;;8.68;1.25;;;;;;;;;;5047712;28;20055;-78
2021/09/16 12:01:04;;;;;;;5.10;0.80;;;;;;;;;;5049290;28;20529;-79
2021/09/16 12:03:41;;;;;;;6.78;0.80;;;;;;;;;;5048980;28;20052;-79
2021/09/16 12:06:13;;;;;;;13.70;1.20;;;;;;;;;;5047411;28;20025;-79
2021/09/16 12:08:48;;;;;;;9.60;1.10;;;;;;;;;;5061253;28;20025;-78
2021/09/16 12:11:33;;;;;;;5.18;1.10;;;;;;;;;;5049471;28;20590;-77
2021/09/16 12:14:02;;;;;;;3.53;1.00;;;;;;;;;;5044287;28;20041;-79
2021/09/16 12:16:33;;;;;;;3.58;1.15;;;;;;;;;;5046912;28;20029;-78
2021/09/16 12:19:05;;;;;;;7.07;0.90;;;;;;;;;;5048374;28;20025;-79
2021/09/16 12:21:37;;;;;;;5.78;1.00;;;;;;;;;;5063502;28;20024;-79
2021/09/16 12:24:06;;;;;;;2.35;0.80;;;;;;;;;;5048382;28;20033;-79
2021/09/16 12:26:37;;;;;;;5.32;1.15;;;;;;;;;;5048563;28;20472;-79
2021/09/16 12:29:06;;;;;;;6.60;1.50;;;;;;;;;;5048959;28;20032;-79
2021/09/16 12:31:34;;;;;;;9.98;1.10;;;;;;;;;;5047012;28;20063;-78
2021/09/16 12:34:23;;;;;;;5.72;0.90;;;;;;;;;;5061473;28;20040;-79
2021/09/16 12:37:07;;;;;;;5.38;1.10;;;;;;;;;;5046718;28;20029;-79
2021/09/16 12:39:52;;;;;;;7.68;1.05;;;;;;;;;;5047975;28;20106;-78
2021/09/16 12:42:29;;;;;;;6.72;1.23;;;;;;;;;;5063199;28;20531;-79
2021/09/16 12:44:55;;;;;;;5.50;1.25;;;;;;;;;;5041129;28;20044;-79
2021/09/16 12:47:22;;;;;;;5.18;0.93;;;;;;;;;;5047988;28;20028;-78
2021/09/16 12:49:49;;;;;;;7.82;1.45;;;;;;;;;;5047653;28;20025;-79
2021/09/16 12:52:23;;;;;;;5.35;1.02;;;;;;;;;;5047614;28;20055;-78
2021/09/16 12:55:05;;;;;;;8.05;1.10;;;;;;;;;;5048013;28;20032;-79
2021/09/16 12:57:35;;;;;;;6.78;1.05;;;;;;;;;;5048180;28;20033;-79
2021/09/16 13:00:10;;;;;;;3.50;0.90;;;;;;;;;;5045416;28;20081;-79
2021/09/16 13:02:53;;;;;;;5.07;1.08;;;;;;;;;;5062950;28;20545;-79
2021/09/16 13:05:26;;;;;;;5.88;0.77;;;;;;;;;;5045180;28;20570;-80
2021/09/16 13:08:25;;;;;;;5.57;0.90;;;;;;;;;;5060171;28;20033;-79
2021/09/16 13:10:54;;;;;;;6.57;0.90;;;;;;;;;;5046403;28;20060;-79
2021/09/16 13:13:26;;;;;;;10.95;1.27;;;;;;;;;;5047687;28;20512;-79
2021/09/16 13:15:52;;;;;;;3.40;0.77;;;;;;;;;;5063115;28;20040;-79
2021/09/16 13:18:17;;;;;;;4.90;0.70;;;;;;;;;;5053479;28;20399;-79
2021/09/16 13:20:44;;;;;;;9.60;0.80;;;;;;;;;;5063698;28;20040;-79
2021/09/16 13:23:11;;;;;;;4.22;0.95;;;;;;;;;;5047879;28;20033;-79
2021/09/16 13:25:37;;;;;;;5.40;0.88;;;;;;;;;;5046135;28;20080;-79
2021/09/16 13:28:04;;;;;;;15.75;1.73;;;;;;;;;;5068054;28;20354;-79
2021/09/16 13:30:30;;;;;;;15.20;1.70;;;;;;;;;;5069318;28;20445;-78
2021/09/16 13:32:56;;;;;;;29.90;2.70;;;;;;;;;;5063482;28;20538;-78
2021/09/16 13:35:22;;;;;;;13.57;1.88;;;;;;;;;;5061782;28;20040;-78
2021/09/16 13:37:48;;;;;;;10.40;1.50;;;;;;;;;;5045913;28;20029;-78
2021/09/16 13:40:15;;;;;;;17.33;2.05;;;;;;;;;;5044238;28;20035;-78
2021/09/16 13:42:42;;;;;;;12.25;1.70;;;;;;;;;;5044623;28;20024;-78
2021/09/16 13:45:10;;;;;;;12.10;1.35;;;;;;;;;;5044643;28;20446;-78
2021/09/16 13:47:36;;;;;;;9.45;1.13;;;;;;;;;;5062096;28;20044;-78
2021/09/16 13:50:02;;;;;;;6.63;1.17;;;;;;;;;;5046604;28;20029;-76
2021/09/16 13:52:28;;;;;;;7.72;1.20;;;;;;;;;;5046584;28;20025;-77
2021/09/16 13:54:54;;;;;;;11.00;1.40;;;;;;;;;;5061894;28;20036;-78
2021/09/16 13:57:19;;;;;;;9.05;2.05;;;;;;;;;;5061778;28;20122;-78
2021/09/16 13:59:45;;;;;;;12.80;1.40;;;;;;;;;;5061235;28;20523;-78
2021/09/16 14:02:11;;;;;;;9.32;1.58;;;;;;;;;;5040691;28;20653;-78
2021/09/16 14:04:37;;;;;;;6.40;1.35;;;;;;;;;;5061677;28;20075;-78
2021/09/16 14:07:03;;;;;;;7.00;1.40;;;;;;;;;;5043335;28;20025;-78
2021/09/16 14:09:29;;;;;;;7.38;1.10;;;;;;;;;;5043706;28;20033;-78
2021/09/16 14:11:55;;;;;;;9.32;1.10;;;;;;;;;;5061742;28;20025;-78
2021/09/16 14:14:21;;;;;;;4.47;0.50;;;;;;;;;;5044008;28;20025;-79
2021/09/16 14:16:46;;;;;;;4.57;0.77;;;;;;;;;;5060355;28;20036;-79
2021/09/16 14:19:12;;;;;;;3.80;0.45;;;;;;;;;;5047176;28;20033;-78
2021/09/16 14:21:38;;;;;;;9.73;1.15;;;;;;;;;;5043122;28;20516;-78
2021/09/16 14:24:05;;;;;;;5.35;0.63;;;;;;;;;;5045293;28;20674;-79
2021/09/16 14:26:31;;;;;;;5.30;0.70;;;;;;;;;;5041997;28;20044;-78
2021/09/16 14:28:57;;;;;;;1.75;0.43;;;;;;;;;;5045839;28;20041;-78
2021/09/16 14:31:23;;;;;;;1.67;0.50;;;;;;;;;;5045600;28;20036;-78
2021/09/16 14:33:49;;;;;;;1.63;0.43;;;;;;;;;;5045750;28;20029;-79
2021/09/16 14:36:14;;;;;;;1.80;0.30;;;;;;;;;;5060827;28;20091;-79
2021/09/16 14:38:41;;;;;;;2.85;0.20;;;;;;;;;;5044967;28;20029;-79
2021/09/16 14:41:07;;;;;;;3.85;0.40;;;;;;;;;;5043543;28;20060;-78